createdAt,value
2018-08-12T00:01:26.152Z,16.60
2018-08-12T00:03:56.236Z,16.70
2018-08-12T00:06:26.299Z,16.70
2018-08-12T00:08:56.386Z,16.70
2018-08-12T00:11:26.471Z,16.70
2018-08-12T00:13:56.591Z,16.80
2018-08-12T00:16:26.763Z,16.70
2018-08-12T00:18:56.851Z,16.70
2018-08-12T00:21:26.883Z,16.70
2018-08-12T00:23:56.947Z,16.70
2018-08-12T00:26:27.068Z,16.60
2018-08-12T00:28:57.122Z,16.60
2018-08-12T00:31:27.270Z,16.50
2018-08-12T00:33:57.526Z,16.50
2018-08-12T00:36:27.572Z,16.50
2018-08-12T00:38:57.754Z,16.40
2018-08-12T00:41:28.231Z,16.30
2018-08-12T00:43:58.340Z,16.30
2018-08-12T00:46:28.438Z,16.20
2018-08-12T00:48:58.507Z,16.20
2018-08-12T00:51:28.682Z,16.10
2018-08-12T00:53:59.088Z,16.10
2018-08-12T00:56:29.207Z,16.10
2018-08-12T00:58:59.511Z,16.10
2018-08-12T01:01:29.676Z,16.10
2018-08-12T01:03:59.792Z,16.00
2018-08-12T01:06:29.879Z,16.00
2018-08-12T01:08:59.919Z,16.00
2018-08-12T01:11:30.187Z,15.90
2018-08-12T01:14:00.539Z,15.80
2018-08-12T01:16:30.672Z,15.80
2018-08-12T01:19:00.815Z,15.80
2018-08-12T01:21:30.975Z,15.80
2018-08-12T01:24:01.208Z,15.70
2018-08-12T01:26:31.452Z,15.70
2018-08-12T01:29:01.575Z,15.80
2018-08-12T01:31:31.663Z,15.80
2018-08-12T01:34:01.903Z,15.80
2018-08-12T01:36:31.992Z,15.80
2018-08-12T01:39:02.084Z,15.90
2018-08-12T01:41:32.135Z,15.90
2018-08-12T01:44:02.239Z,15.90
2018-08-12T01:46:32.312Z,15.90
2018-08-12T01:49:02.631Z,15.90
2018-08-12T01:51:32.836Z,15.80
2018-08-12T01:54:02.984Z,15.80
2018-08-12T01:56:33.256Z,15.80
2018-08-12T01:59:03.506Z,15.80
2018-08-12T02:01:33.647Z,15.80
2018-08-12T02:04:03.736Z,15.80
2018-08-12T02:06:33.883Z,15.80
2018-08-12T02:09:05.956Z,15.80
2018-08-12T02:11:36.061Z,15.80
2018-08-12T02:14:06.611Z,15.70
2018-08-12T02:16:37.010Z,15.70
2018-08-12T02:19:07.224Z,15.70
2018-08-12T02:21:37.315Z,15.70
2018-08-12T02:24:08.107Z,15.70
2018-08-12T02:26:38.211Z,15.70
2018-08-12T02:29:08.392Z,15.80
2018-08-12T02:31:38.516Z,15.80
2018-08-12T02:34:08.576Z,15.80
2018-08-12T02:36:38.698Z,15.80
2018-08-12T02:39:10.675Z,15.80
2018-08-12T02:41:40.920Z,15.80
2018-08-12T02:44:11.099Z,15.70
2018-08-12T02:46:41.373Z,15.70
2018-08-12T02:49:11.641Z,15.70
2018-08-12T02:51:41.965Z,15.70
2018-08-12T02:54:12.168Z,15.70
2018-08-12T02:56:42.401Z,15.70
2018-08-12T02:59:12.543Z,15.70
2018-08-12T03:01:42.674Z,15.70
2018-08-12T03:04:12.813Z,15.70
2018-08-12T03:06:42.920Z,15.70
2018-08-12T03:09:13.536Z,15.70
2018-08-12T03:11:43.830Z,15.70
2018-08-12T03:14:14.048Z,15.60
2018-08-12T03:16:44.453Z,15.70
2018-08-12T03:19:15.032Z,15.60
2018-08-12T03:21:45.520Z,15.60
2018-08-12T03:24:15.655Z,15.60
2018-08-12T03:26:45.856Z,15.60
2018-08-12T03:29:16.032Z,15.60
2018-08-12T03:31:46.279Z,15.60
2018-08-12T03:34:16.395Z,15.60
2018-08-12T03:36:46.589Z,15.50
2018-08-12T03:39:16.740Z,15.60
2018-08-12T03:41:46.852Z,15.60
2018-08-12T03:44:17.123Z,15.60
2018-08-12T03:46:47.179Z,15.60
2018-08-12T03:49:17.392Z,15.60
2018-08-12T03:51:47.527Z,15.60
2018-08-12T03:54:17.691Z,15.60
2018-08-12T03:56:48.219Z,15.60
2018-08-12T03:59:18.503Z,15.60
2018-08-12T04:01:48.735Z,15.60
2018-08-12T04:04:18.876Z,15.60
2018-08-12T04:06:49.016Z,15.60
2018-08-12T04:09:19.184Z,15.60
2018-08-12T04:11:49.295Z,15.60
2018-08-12T04:14:19.465Z,15.60
2018-08-12T04:16:54.512Z,15.70
2018-08-12T04:19:24.715Z,15.70
2018-08-12T04:21:55.140Z,15.70
2018-08-12T04:24:26.057Z,15.80
2018-08-12T04:26:56.219Z,15.80
2018-08-12T04:29:26.411Z,15.80
2018-08-12T04:31:56.579Z,15.80
2018-08-12T04:34:26.963Z,15.90
2018-08-12T04:36:57.320Z,15.90
2018-08-12T04:39:27.379Z,15.90
2018-08-12T04:41:57.752Z,15.90
2018-08-12T04:44:28.054Z,15.90
2018-08-12T04:46:58.312Z,16.00
2018-08-12T04:49:28.866Z,15.90
2018-08-12T04:51:59.156Z,15.90
2018-08-12T04:54:29.290Z,15.90
2018-08-12T04:56:59.731Z,15.90
2018-08-12T04:59:30.122Z,15.90
2018-08-12T05:02:00.167Z,15.90
2018-08-12T05:04:30.612Z,15.80
2018-08-12T05:07:00.972Z,15.80
2018-08-12T05:09:31.085Z,15.80
2018-08-12T05:12:01.144Z,15.80
2018-08-12T05:14:31.515Z,15.80
2018-08-12T05:17:01.990Z,15.80
2018-08-12T05:19:32.235Z,15.80
2018-08-12T05:22:03.001Z,15.80
2018-08-12T05:24:33.170Z,15.90
2018-08-12T05:27:03.867Z,15.90
2018-08-12T05:29:34.343Z,16.00
2018-08-12T05:32:04.480Z,16.10
2018-08-12T05:34:34.627Z,16.10
2018-08-12T05:37:05.043Z,16.20
2018-08-12T05:39:35.140Z,16.20
2018-08-12T05:42:05.489Z,16.30
2018-08-12T05:44:35.908Z,16.30
2018-08-12T05:47:06.335Z,16.30
2018-08-12T05:49:36.428Z,16.40
2018-08-12T05:52:06.707Z,16.40
2018-08-12T05:54:36.855Z,16.40
2018-08-12T05:57:07.580Z,16.50
2018-08-12T05:59:37.775Z,16.50
2018-08-12T06:02:08.231Z,16.50
2018-08-12T06:04:38.852Z,16.50
2018-08-12T06:07:09.082Z,16.60
2018-08-12T06:09:39.225Z,16.60
2018-08-12T06:12:09.396Z,16.70
2018-08-12T06:14:39.512Z,16.70
2018-08-12T06:17:09.716Z,16.80
2018-08-12T06:19:39.884Z,16.80
2018-08-12T06:22:10.003Z,16.90
2018-08-12T06:24:40.316Z,16.90
2018-08-12T06:27:10.584Z,17.00
2018-08-12T06:29:40.859Z,17.00
2018-08-12T06:32:11.062Z,17.10
2018-08-12T06:34:41.816Z,17.10
2018-08-12T06:37:12.315Z,17.10
2018-08-12T06:39:42.452Z,17.00
2018-08-12T06:42:12.736Z,17.00
2018-08-12T06:44:42.912Z,17.00
2018-08-12T06:47:13.312Z,17.00
2018-08-12T06:49:43.675Z,17.00
2018-08-12T06:52:13.792Z,17.10
2018-08-12T06:54:43.938Z,17.10
2018-08-12T06:57:14.036Z,17.10
2018-08-12T06:59:44.104Z,17.20
2018-08-12T07:02:14.605Z,17.40
2018-08-12T07:04:45.012Z,17.50
2018-08-12T07:07:15.651Z,17.60
2018-08-12T07:09:46.200Z,17.70
2018-08-12T07:12:16.448Z,17.70
2018-08-12T07:14:46.681Z,17.60
2018-08-12T07:17:16.867Z,17.70
2018-08-12T07:19:47.283Z,17.90
2018-08-12T07:22:17.743Z,18.20
2018-08-12T07:24:48.404Z,18.30
2018-08-12T07:27:19.000Z,18.50
2018-08-12T07:29:49.132Z,18.70
2018-08-12T07:32:19.236Z,18.80
2018-08-12T07:34:49.689Z,19.00
2018-08-12T07:37:19.919Z,19.00
2018-08-12T07:39:50.120Z,19.00
2018-08-12T07:42:20.264Z,19.00
2018-08-12T07:44:50.888Z,18.90
2018-08-12T07:47:21.120Z,18.70
2018-08-12T07:49:51.795Z,18.60
2018-08-12T07:52:22.153Z,18.40
2018-08-12T07:54:52.410Z,18.30
2018-08-12T07:57:22.647Z,18.60
2018-08-12T07:59:52.959Z,18.80
2018-08-12T08:02:23.403Z,18.90
2018-08-12T08:04:53.783Z,19.10
2018-08-12T08:07:24.272Z,19.40
2018-08-12T08:09:54.402Z,19.60
2018-08-12T08:12:24.608Z,19.60
2018-08-12T08:14:54.678Z,19.50
2018-08-12T08:17:24.807Z,19.40
2018-08-12T08:19:55.034Z,19.30
2018-08-12T08:22:25.212Z,19.10
2018-08-12T08:24:55.383Z,18.70
2018-08-12T08:27:25.812Z,18.50
2018-08-12T08:29:56.199Z,18.30
2018-08-12T08:32:26.375Z,18.10
2018-08-12T08:34:56.674Z,17.90
2018-08-12T08:37:26.900Z,17.60
2018-08-12T08:39:57.287Z,17.50
2018-08-12T08:42:27.692Z,17.40
2018-08-12T08:44:57.864Z,17.30
2018-08-12T08:47:28.231Z,17.30
2018-08-12T08:49:58.842Z,17.30
2018-08-12T08:52:29.132Z,17.30
2018-08-12T08:54:59.315Z,17.30
2018-08-12T08:57:29.964Z,17.30
2018-08-12T09:00:00.336Z,17.40
2018-08-12T09:02:30.772Z,17.40
2018-08-12T09:05:00.859Z,17.50
2018-08-12T09:07:31.241Z,17.60
2018-08-12T09:10:01.416Z,17.70
2018-08-12T09:12:31.612Z,18.00
2018-08-12T09:15:01.828Z,17.90
2018-08-12T09:17:32.088Z,17.80
2018-08-12T09:20:02.480Z,17.80
2018-08-12T09:22:32.768Z,17.80
2018-08-12T09:25:02.912Z,17.80
2018-08-12T09:27:33.257Z,17.70
2018-08-12T09:30:05.056Z,17.80
2018-08-12T09:32:35.444Z,17.90
2018-08-12T09:35:06.002Z,17.90
2018-08-12T09:37:36.527Z,18.00
2018-08-12T09:40:10.471Z,18.10
2018-08-12T09:42:41.262Z,18.40
2018-08-12T09:45:14.024Z,18.80
2018-08-12T09:47:44.268Z,19.10
2018-08-12T09:50:16.040Z,18.90
2018-08-12T09:52:47.319Z,18.90
2018-08-12T09:55:18.084Z,18.80
2018-08-12T09:57:48.204Z,18.70
2018-08-12T10:00:24.128Z,18.70
2018-08-12T10:02:55.609Z,18.60
2018-08-12T10:05:25.795Z,18.60
2018-08-12T10:08:16.309Z,18.50
2018-08-12T10:11:11.892Z,18.50
2018-08-12T10:13:49.448Z,18.50
2018-08-12T10:16:37.894Z,18.50
2018-08-12T10:19:21.707Z,18.30
2018-08-12T10:22:08.058Z,18.30
2018-08-12T10:24:55.017Z,18.30
2018-08-12T10:27:44.096Z,18.20
2018-08-12T10:30:29.482Z,18.10
2018-08-12T10:33:16.760Z,18.00
2018-08-12T10:36:00.908Z,17.80
2018-08-12T10:38:44.589Z,17.70
2018-08-12T10:41:15.224Z,17.60
2018-08-12T10:43:45.724Z,17.50
2018-08-12T10:46:16.141Z,17.50
2018-08-12T10:48:46.976Z,17.50
2018-08-12T10:51:31.459Z,17.50
2018-08-12T10:54:14.447Z,17.60
2018-08-12T10:56:48.395Z,17.80
2018-08-12T10:59:28.936Z,17.80
2018-08-12T11:02:07.512Z,17.70
2018-08-12T11:04:52.548Z,17.70
2018-08-12T11:07:24.328Z,17.60
2018-08-12T11:09:54.609Z,17.70
2018-08-12T11:12:24.984Z,17.90
2018-08-12T11:14:55.348Z,17.90
2018-08-12T11:17:25.703Z,18.00
2018-08-12T11:19:55.995Z,17.80
2018-08-12T11:22:26.291Z,17.60
2018-08-12T11:24:56.716Z,17.50
2018-08-12T11:27:27.023Z,17.40
2018-08-12T11:29:57.416Z,17.40
2018-08-12T11:32:27.709Z,17.30
2018-08-12T11:34:58.368Z,17.30
2018-08-12T11:37:28.659Z,17.30
2018-08-12T11:39:59.124Z,17.20
2018-08-12T11:42:29.463Z,17.20
2018-08-12T11:44:59.744Z,17.10
2018-08-12T11:47:30.066Z,17.10
2018-08-12T11:50:00.295Z,17.00
2018-08-12T11:52:30.564Z,17.00
2018-08-12T11:55:00.769Z,16.90
2018-08-12T11:57:30.936Z,17.00
2018-08-12T12:00:01.120Z,17.10
2018-08-12T12:02:31.348Z,17.20
2018-08-12T12:05:01.662Z,17.20
2018-08-12T12:07:31.902Z,17.30
2018-08-12T12:10:02.133Z,17.40
2018-08-12T12:12:32.628Z,17.60
2018-08-12T12:15:03.001Z,17.80
2018-08-12T12:17:33.556Z,17.90
2018-08-12T12:20:04.189Z,17.80
2018-08-12T12:22:34.448Z,17.80
2018-08-12T12:25:06.144Z,17.80
2018-08-12T12:27:36.419Z,17.80
2018-08-12T12:30:08.156Z,17.70
2018-08-12T12:32:38.444Z,17.60
2018-08-12T12:35:08.726Z,17.60
2018-08-12T12:37:39.210Z,17.40
2018-08-12T12:40:11.345Z,17.50
2018-08-12T12:42:41.719Z,17.40
2018-08-12T12:45:13.040Z,17.30
2018-08-12T12:47:43.601Z,17.40
2018-08-12T12:50:17.645Z,17.20
2018-08-12T12:52:48.917Z,17.20
2018-08-12T12:55:20.228Z,17.20
2018-08-12T12:57:50.447Z,17.30
2018-08-12T13:00:21.488Z,17.40
2018-08-12T13:02:51.981Z,17.60
2018-08-12T13:05:22.960Z,17.80
2018-08-12T13:07:53.280Z,17.90
2018-08-12T13:10:23.576Z,18.10
2018-08-12T13:12:54.097Z,18.10
2018-08-12T13:15:24.280Z,18.20
2018-08-12T13:17:54.576Z,18.10
2018-08-12T13:20:24.900Z,17.90
2018-08-12T13:22:55.152Z,17.90
2018-08-12T13:25:25.408Z,17.80
2018-08-12T13:27:55.684Z,17.70
2018-08-12T13:30:26.060Z,17.60
2018-08-12T13:32:56.381Z,17.60
2018-08-12T13:35:26.936Z,17.70
2018-08-12T13:37:57.153Z,17.70
2018-08-12T13:40:27.444Z,17.70
2018-08-12T13:42:57.731Z,17.80
2018-08-12T13:45:27.980Z,17.90
2018-08-12T13:47:58.349Z,17.90
2018-08-12T13:50:28.572Z,18.10
2018-08-12T13:52:58.829Z,18.00
2018-08-12T13:55:29.100Z,18.10
2018-08-12T13:57:59.454Z,18.10
2018-08-12T14:00:29.784Z,18.10
2018-08-12T14:03:00.956Z,18.00
2018-08-12T14:05:31.271Z,18.10
2018-08-12T14:08:01.520Z,18.20
2018-08-12T14:10:31.752Z,18.20
2018-08-12T14:13:02.038Z,18.20
2018-08-12T14:15:32.289Z,18.20
2018-08-12T14:18:02.584Z,18.10
2018-08-12T14:20:32.809Z,18.10
2018-08-12T14:23:03.024Z,18.10
2018-08-12T14:25:33.296Z,18.10
2018-08-12T14:28:03.540Z,18.10
2018-08-12T14:30:33.785Z,18.10
2018-08-12T14:33:04.111Z,18.20
2018-08-12T14:35:34.375Z,18.10
2018-08-12T14:38:04.752Z,18.20
2018-08-12T14:40:34.947Z,18.20
2018-08-12T14:43:05.190Z,18.20
2018-08-12T14:45:35.404Z,18.20
2018-08-12T14:48:06.076Z,18.30
2018-08-12T14:50:36.304Z,18.30
2018-08-12T14:53:06.607Z,18.20
2018-08-12T14:55:36.868Z,18.20
2018-08-12T14:58:07.237Z,18.10
2018-08-12T15:00:37.529Z,18.00
2018-08-12T15:03:07.796Z,17.90
2018-08-12T15:05:38.043Z,17.90
2018-08-12T15:08:08.419Z,17.90
2018-08-12T15:10:38.742Z,17.80
2018-08-12T15:13:09.056Z,17.90
2018-08-12T15:15:39.241Z,17.90
2018-08-12T15:18:09.625Z,17.90
2018-08-12T15:20:39.925Z,17.60
2018-08-12T15:23:10.172Z,17.40
2018-08-12T15:25:40.453Z,17.20
2018-08-12T15:28:10.693Z,17.00
2018-08-12T15:30:40.932Z,16.90
2018-08-12T15:33:11.208Z,16.80
2018-08-12T15:35:41.463Z,16.60
2018-08-12T15:38:11.680Z,16.50
2018-08-12T15:40:41.946Z,16.40
2018-08-12T15:43:12.187Z,16.30
2018-08-12T15:45:42.390Z,16.20
2018-08-12T15:48:12.625Z,16.20
2018-08-12T15:50:42.914Z,16.20
2018-08-12T15:53:13.112Z,16.10
2018-08-12T15:55:43.430Z,16.10
2018-08-12T15:58:13.644Z,16.10
2018-08-12T16:00:43.990Z,16.10
2018-08-12T16:03:14.127Z,16.00
2018-08-12T16:05:44.447Z,16.00
2018-08-12T16:08:14.764Z,15.90
2018-08-12T16:10:45.177Z,15.90
2018-08-12T16:13:15.332Z,15.90
2018-08-12T16:15:45.643Z,15.90
2018-08-12T16:18:15.887Z,15.80
2018-08-12T16:20:46.199Z,15.90
2018-08-12T16:23:16.436Z,15.80
2018-08-12T16:25:46.714Z,15.80
2018-08-12T16:28:16.862Z,15.80
2018-08-12T16:30:47.084Z,15.80
2018-08-12T16:33:17.370Z,15.70
2018-08-12T16:35:47.582Z,15.70
2018-08-12T16:38:17.725Z,15.70
2018-08-12T16:40:48.022Z,15.60
2018-08-12T16:43:18.361Z,15.50
2018-08-12T16:45:48.584Z,15.40
2018-08-12T16:48:18.778Z,15.40
2018-08-12T16:50:49.008Z,15.40
2018-08-12T16:53:19.221Z,15.40
2018-08-12T16:55:49.433Z,15.40
2018-08-12T16:58:19.531Z,15.40
2018-08-12T17:00:49.811Z,15.30
2018-08-12T17:03:19.988Z,15.30
2018-08-12T17:05:50.188Z,15.30
2018-08-12T17:08:20.425Z,15.20
2018-08-12T17:10:50.688Z,15.30
2018-08-12T17:13:20.928Z,15.20
2018-08-12T17:15:51.243Z,15.20
2018-08-12T17:18:21.496Z,15.20
2018-08-12T17:20:53.417Z,15.20
2018-08-12T17:23:23.518Z,15.00
2018-08-12T17:25:53.767Z,15.10
2018-08-12T17:28:23.989Z,15.10
2018-08-12T17:30:54.176Z,15.10
2018-08-12T17:33:24.383Z,15.00
2018-08-12T17:35:54.696Z,15.00
2018-08-12T17:38:24.864Z,14.90
2018-08-12T17:40:55.197Z,15.00
2018-08-12T17:43:25.517Z,14.90
2018-08-12T17:45:55.732Z,15.00
2018-08-12T17:48:25.932Z,14.90
2018-08-12T17:50:56.190Z,14.90
2018-08-12T17:53:26.420Z,14.80
2018-08-12T17:55:56.644Z,14.80
2018-08-12T17:58:26.921Z,14.80
2018-08-12T18:00:57.111Z,14.80
2018-08-12T18:03:27.293Z,14.80
2018-08-12T18:05:57.488Z,14.70
2018-08-12T18:08:27.674Z,14.70
2018-08-12T18:10:57.920Z,14.60
2018-08-12T18:13:28.104Z,14.60
2018-08-12T18:15:58.317Z,14.60
2018-08-12T18:18:28.520Z,14.60
2018-08-12T18:20:58.809Z,14.60
2018-08-12T18:23:29.056Z,14.60
2018-08-12T18:25:59.260Z,14.60
2018-08-12T18:28:29.485Z,14.60
2018-08-12T18:30:59.678Z,14.60
2018-08-12T18:33:29.832Z,14.60
2018-08-12T18:36:00.249Z,14.50
2018-08-12T18:38:30.542Z,14.50
2018-08-12T18:41:00.865Z,14.40
2018-08-12T18:43:31.029Z,14.40
2018-08-12T18:46:01.232Z,14.40
2018-08-12T18:48:31.468Z,14.30
2018-08-12T18:51:01.624Z,14.30
2018-08-12T18:53:31.836Z,14.30
2018-08-12T18:56:02.070Z,14.30
2018-08-12T18:58:32.328Z,14.30
2018-08-12T19:01:02.472Z,14.20
2018-08-12T19:03:32.713Z,14.30
2018-08-12T19:06:02.888Z,14.20
2018-08-12T19:08:33.058Z,14.20
2018-08-12T19:11:03.324Z,14.20
2018-08-12T19:13:33.484Z,14.20
2018-08-12T19:16:03.687Z,14.20
2018-08-12T19:18:33.893Z,14.20
2018-08-12T19:21:04.108Z,14.10
2018-08-12T19:23:34.256Z,14.10
2018-08-12T19:26:04.432Z,14.10
2018-08-12T19:28:34.576Z,14.00
2018-08-12T19:31:04.772Z,14.00
2018-08-12T19:33:34.886Z,14.00
2018-08-12T19:36:05.060Z,14.00
2018-08-12T19:38:35.328Z,13.90
2018-08-12T19:41:05.496Z,13.90
2018-08-12T19:43:35.640Z,13.90
2018-08-12T19:46:05.830Z,13.90
2018-08-12T19:48:36.152Z,13.90
2018-08-12T19:51:06.586Z,13.90
2018-08-12T19:53:36.709Z,13.90
2018-08-12T19:56:06.881Z,13.90
2018-08-12T19:58:37.001Z,13.90
2018-08-12T20:01:07.156Z,13.90
2018-08-12T20:03:37.295Z,13.80
2018-08-12T20:06:07.516Z,13.90
2018-08-12T20:08:37.660Z,13.90
2018-08-12T20:11:07.848Z,13.90
2018-08-12T20:13:37.982Z,13.80
2018-08-12T20:16:08.423Z,13.80
2018-08-12T20:18:38.635Z,13.80
2018-08-12T20:21:08.796Z,13.80
2018-08-12T20:23:38.922Z,13.80
2018-08-12T20:26:09.193Z,13.80
2018-08-12T20:28:39.297Z,13.90
2018-08-12T20:31:09.444Z,13.90
2018-08-12T20:33:39.639Z,13.90
2018-08-12T20:36:09.790Z,13.80
2018-08-12T20:38:39.922Z,13.90
2018-08-12T20:41:10.100Z,13.90
2018-08-12T20:43:40.228Z,13.90
2018-08-12T20:46:10.455Z,13.90
2018-08-12T20:48:40.623Z,13.90
2018-08-12T20:51:10.923Z,13.90
2018-08-12T20:53:41.060Z,14.00
2018-08-12T20:56:11.204Z,13.90
2018-08-12T20:58:41.345Z,13.90
2018-08-12T21:01:11.656Z,13.90
2018-08-12T21:03:41.854Z,13.90
2018-08-12T21:06:11.952Z,14.00
2018-08-12T21:08:42.124Z,14.00
2018-08-12T21:11:12.244Z,14.00
2018-08-12T21:13:42.367Z,14.00
2018-08-12T21:16:12.536Z,14.00
2018-08-12T21:18:42.616Z,14.00
2018-08-12T21:21:12.696Z,14.10
2018-08-12T21:23:42.840Z,14.10
2018-08-12T21:26:13.135Z,14.10
2018-08-12T21:28:43.174Z,14.00
2018-08-12T21:31:13.396Z,14.00
2018-08-12T21:33:43.464Z,14.10
2018-08-12T21:36:13.842Z,14.10
2018-08-12T21:38:44.072Z,14.00
2018-08-12T21:41:14.250Z,14.10
2018-08-12T21:43:44.413Z,14.10
2018-08-12T21:46:14.510Z,14.10
2018-08-12T21:48:44.568Z,14.10
2018-08-12T21:51:14.659Z,14.10
2018-08-12T21:53:44.849Z,14.10
2018-08-12T21:56:15.052Z,14.10
2018-08-12T21:58:45.277Z,14.10
2018-08-12T22:01:15.440Z,14.10
2018-08-12T22:03:45.576Z,14.10
2018-08-12T22:06:15.788Z,14.10
2018-08-12T22:08:45.860Z,14.10
2018-08-12T22:11:16.008Z,14.10
2018-08-12T22:13:46.383Z,14.10
2018-08-12T22:16:16.430Z,14.10
2018-08-12T22:18:46.632Z,14.10
2018-08-12T22:21:16.834Z,14.10
2018-08-12T22:23:46.872Z,14.00
2018-08-12T22:26:17.065Z,14.10
2018-08-12T22:28:47.188Z,14.10
2018-08-12T22:31:17.352Z,14.10
2018-08-12T22:33:47.661Z,14.10
2018-08-12T22:36:17.797Z,14.10
2018-08-12T22:38:47.912Z,14.10
2018-08-12T22:41:18.060Z,14.00
2018-08-12T22:43:48.192Z,14.00
2018-08-12T22:46:18.349Z,14.00
2018-08-12T22:48:48.522Z,14.00
2018-08-12T22:51:18.647Z,14.00
2018-08-12T22:53:48.823Z,14.00
2018-08-12T22:56:18.916Z,14.00
2018-08-12T22:58:49.052Z,14.00
2018-08-12T23:01:19.279Z,14.00
2018-08-12T23:03:49.737Z,14.00
2018-08-12T23:06:19.871Z,14.00
2018-08-12T23:08:49.892Z,14.00
2018-08-12T23:11:19.978Z,14.00
2018-08-12T23:13:50.145Z,14.00
2018-08-12T23:16:31.587Z,14.00
2018-08-12T23:19:01.737Z,14.00
2018-08-12T23:21:31.916Z,14.00
2018-08-12T23:24:02.208Z,14.00
2018-08-12T23:26:32.352Z,14.00
2018-08-12T23:29:02.417Z,14.00
2018-08-12T23:31:32.579Z,14.00
2018-08-12T23:34:02.680Z,14.00
2018-08-12T23:36:32.901Z,14.00
2018-08-12T23:39:03.127Z,14.00
2018-08-12T23:41:33.417Z,14.00
2018-08-12T23:44:04.652Z,14.10
2018-08-12T23:46:34.860Z,14.10
2018-08-12T23:49:04.924Z,14.10
2018-08-12T23:51:35.197Z,14.10
2018-08-12T23:54:05.444Z,14.10
2018-08-12T23:56:35.592Z,14.10
2018-08-12T23:59:05.735Z,14.10
